Flight Track Log - Related Links

Times and Time Zones

All times are in EST time to prevent confusion due to time zone crossing. See the UPS2592 flight status page for this flight to view local times or setup timezone preferences in your user account.

Time Position Orientation Groundspeed Altitude Reporting Facility
EST Latitude Longitude Course Direction KTS MPH feet Rate Location/Type
Mon 04:19:25 PM 38.1820 -85.7470 218° Southwest 70 81  Level FlightAware ADS-B
Mon 04:19:58 PM 38.1600 -85.7390 164° South 173 199 1,200 2,557 Climbing FlightAware ADS-B
Mon 04:20:26 PM 38.1380 -85.7300 162° South 193 222 2,600 2,280 Climbing FlightAware ADS-B
Mon 04:20:48 PM 38.1160 -85.7290 178° South 229 264 3,100 2,375 Climbing FlightAware ADS-B
Mon 04:21:14 PM 38.0910 -85.7420 202° Southwest 222 255 4,500 3,231 Climbing FlightAware ADS-B
Mon 04:21:40 PM 38.0780 -85.7710 240° Southwest 223 257 5,900 3,522 Climbing FlightAware ADS-B
Mon 04:22:00 PM 38.0770 -85.7980 267° West 225 259 7,200 3,261 Climbing FlightAware ADS-B
Mon 04:22:26 PM 38.0860 -85.8300 290° West 255 293 8,400 2,727 Climbing FlightAware ADS-B
Mon 04:22:55 PM 38.1190 -85.8480 337° Northwest 284 327 9,700 2,327 Climbing FlightAware ADS-B
Mon 04:23:15 PM 38.1460 -85.8530 352° North 306 352 10,300 1,624 Climbing FlightAware ADS-B
Mon 04:24:20 PM 38.2500 -85.8750 351° North 376 433 12,000 2,065 Climbing FlightAware ADS-B
Mon 04:24:48 PM 38.2980 -85.8880 348° North 378 435 13,500 2,759 Climbing FlightAware ADS-B
Mon 04:25:47 PM 38.3950 -85.9310 341° North 377 434 16,000 2,556 Climbing FlightAware ADS-B
Mon 04:26:36 PM 38.4600 -86.0070 318° Northwest 384 442 18,100 2,514 Climbing FlightAware ADS-B
Mon 04:27:01 PM 38.4910 -86.0440 317° Northwest 388 447 19,100 2,268 Climbing FlightAware ADS-B
Mon 04:27:58 PM 38.5680 -86.1350 317° Northwest 400 460 21,200 2,000 Climbing FlightAware ADS-B
Mon 04:28:46 PM 38.6310 -86.2110 317° Northwest 412 474 22,600 1,901 Climbing FlightAware ADS-B
Mon 04:29:39 PM 38.7090 -86.3030 317° Northwest 420 483 24,400 1,800 Climbing FlightAware ADS-B
Mon 04:30:26 PM 38.7530 -86.3560 317° Northwest 427 491 25,600 1,550 Climbing FlightAware ADS-B
Mon 04:31:39 PM 38.8820 -86.5110 317° Northwest 436 502 27,500 1,771 Climbing FlightAware ADS-B
Mon 04:32:11 PM 38.9270 -86.5650 317° Northwest 430 495 28,700 1,850 Climbing FlightAware ADS-B
Mon 04:33:26 PM 39.0370 -86.6980 317° Northwest 425 489 30,800 1,547 Climbing FlightAware ADS-B
Mon 04:34:19 PM 39.1130 -86.7900 317° Northwest 421 484 32,000 900 Climbing FlightAware ADS-B
Mon 04:34:46 PM 39.1520 -86.8360 318° Northwest 417 480 32,000  Level FlightAware ADS-B
Mon 04:35:49 PM 39.2390 -86.9430 316° Northwest 409 471 32,000  Level FlightAware ADS-B
Mon 04:36:28 PM 39.2920 -87.0080 317° Northwest 412 474 32,000  Level FlightAware ADS-B
Mon 04:37:18 PM 39.3620 -87.0930 317° Northwest 412 474 32,000  Level FlightAware ADS-B
Mon 04:38:14 PM 39.4380 -87.1870 316° Northwest 405 466 32,000  Level FlightAware ADS-B
Mon 04:38:45 PM 39.4790 -87.2370 317° Northwest 403 464 32,000  Level FlightAware ADS-B
Mon 04:39:18 PM 39.5210 -87.2960 313° West 402 463 32,000  Level FlightAware ADS-B
Mon 04:40:11 PM 39.5880 -87.3920 312° West 407 468 32,000  Level FlightAware ADS-B
Mon 04:40:55 PM 39.6420 -87.4710 312° West 405 466 32,000  Level FlightAware ADS-B
Mon 04:41:51 PM 39.7120 -87.5730 312° West 403 464 32,000  Level FlightAware ADS-B
Mon 04:42:48 PM 39.7820 -87.6750 312° West 403 464 32,000 71 Level FlightAware ADS-B
Mon 04:43:16 PM 39.8160 -87.7250 312° West 401 461 32,100  Climbing FlightAware ADS-B
Mon 04:43:48 PM 39.8581 -87.7877 311° West 399 459 32,000 -63 Descending FlightAware ADS-B
Mon 04:44:51 PM 39.9330 -87.8980 312° West 397 457 32,000  Level FlightAware ADS-B
Mon 04:45:49 PM 40.0034 -88.0042 311° West 395 455 32,000  Level FlightAware ADS-B
Mon 04:46:36 PM 40.0511 -88.0946 305° West 394 453 32,000  Level FlightAware ADS-B
Mon 04:47:18 PM 40.0930 -88.1770 304° West 394 453 32,000  Level FlightAware ADS-B
Mon 04:48:14 PM 40.1500 -88.2890 304° West 394 453 32,000  Level FlightAware ADS-B
Mon 04:48:58 PM 40.1679 -88.3227 305° West 390 449 32,000 57 Level FlightAware ADS-B
Mon 04:50:00 PM 40.2572 -88.4985 304° West 393 452 32,100  Climbing FlightAware ADS-B
Mon 04:51:01 PM 40.3176 -88.6185 303° West 389 448 32,000 -51 Descending FlightAware ADS-B
Mon 04:51:57 PM 40.3698 -88.7219 304° West 389 448 32,000  Level FlightAware ADS-B
Mon 04:52:29 PM 40.4001 -88.7820 303° West 389 448 32,000  Level FlightAware ADS-B
Mon 04:53:22 PM 40.4570 -88.8950 304° West 388 447 32,000  Level FlightAware ADS-B
Mon 04:54:20 PM 40.5110 -89.0040 303° West 389 448 32,000  Level FlightAware ADS-B
Mon 04:54:25 PM 40.5187 -89.0197 303° West 391 450 32,000  Level FlightAware ADS-B
Mon 04:55:13 PM 40.5660 -89.1140 303° West 390 449 32,000  Level FlightAware ADS-B
Mon 04:55:52 PM 40.6063 -89.1960 303° West 392 451 32,000  Level FlightAware ADS-B
Mon 04:57:02 PM 40.6720 -89.3280 303° West 390 449 32,000  Level FlightAware ADS-B
Mon 04:57:31 PM 40.7000 -89.3850 303° West 388 447 32,000  Level FlightAware ADS-B
Mon 04:58:04 PM 40.7330 -89.4520 303° West 388 447 32,000  Level FlightAware ADS-B
Mon 04:58:52 PM 40.7800 -89.5490 303° West 387 445 32,000  Level FlightAware ADS-B
Mon 04:59:46 PM 40.8330 -89.6560 303° West 385 443 32,000  Level FlightAware ADS-B
Mon 05:00:12 PM 40.8580 -89.7070 303° West 384 442 32,000  Level FlightAware ADS-B
Mon 05:00:48 PM 40.8910 -89.7760 302° West 385 443 32,000  Level FlightAware ADS-B
Mon 05:01:28 PM 40.9310 -89.8590 303° West 384 442 32,000  Level FlightAware ADS-B
Mon 05:01:51 PM 40.9541 -89.9064 303° West 384 442 32,000  Level FlightAware ADS-B
Mon 05:02:54 PM 41.0120 -90.0260 303° West 382 440 32,000  Level FlightAware ADS-B
Mon 05:03:34 PM 41.0520 -90.1030 305° West 382 440 32,000  Level FlightAware ADS-B
Mon 05:04:22 PM 41.1000 -90.1980 304° West 381 438 32,000  Level FlightAware ADS-B
Mon 05:05:18 PM 41.1550 -90.3050 304° West 381 438 32,000  Level FlightAware ADS-B
Mon 05:06:08 PM 41.2040 -90.4030 304° West 381 438 32,000  Level FlightAware ADS-B
Mon 05:07:10 PM 41.2730 -90.5190 308° West 385 443 32,000  Level FlightAware ADS-B
Mon 05:07:58 PM 41.3290 -90.6020 312° West 385 443 32,000  Level FlightAware ADS-B
Mon 05:08:43 PM 41.3830 -90.6810 312° West 383 441 32,000  Level FlightAware ADS-B
Mon 05:09:11 PM 41.4160 -90.7310 311° West 383 441 32,000  Level FlightAware ADS-B
Mon 05:10:12 PM 41.4880 -90.8370 312° West 382 440 32,000  Level FlightAware ADS-B
Mon 05:11:00 PM 41.5440 -90.9210 312° West 382 440 32,000  Level FlightAware ADS-B
Mon 05:11:38 PM 41.5900 -90.9890 312° West 383 441 32,000  Level FlightAware ADS-B
Mon 05:12:30 PM 41.6500 -91.0800 311° West 383 441 32,000  Level FlightAware ADS-B
Mon 05:13:22 PM 41.7090 -91.1690 312° West 380 437 32,000  Level FlightAware ADS-B
Mon 05:14:13 PM 41.7700 -91.2610 312° West 380 437 32,000  Level FlightAware ADS-B
Mon 05:14:55 PM 41.8200 -91.3360 312° West 381 438 32,000  Level FlightAware ADS-B
Mon 05:15:25 PM 41.8550 -91.3890 312° West 380 437 32,000  Level FlightAware ADS-B
Mon 05:16:12 PM 41.9077 -91.4697 311° West 379 436 32,000  Level FlightAware ADS-B (LPVM)
Mon 05:16:48 PM 41.9505 -91.5351 311° West 378 435 32,000  Level FlightAware ADS-B (LPVM)
Mon 05:17:34 PM 42.0044 -91.6172 311° West 377 434 32,000  Level FlightAware ADS-B (LPVM)
Mon 05:18:12 PM 42.0478 -91.6838 311° West 379 436 32,000  Level FlightAware ADS-B (LPVM)
Mon 05:18:54 PM 42.0966 -91.7588 311° West 379 436 32,000  Level FlightAware ADS-B (LPVM)
Mon 05:19:34 PM 42.1422 -91.8290 311° West 379 436 32,000  Level FlightAware ADS-B (LPVM)
Mon 05:20:13 PM 42.1868 -91.8976 311° West 379 436 32,000  Level FlightAware ADS-B (LPVM)
Mon 05:20:52 PM 42.2228 -91.9534 311° West 379 436 32,000  Level FlightAware ADS-B (LPVM)
Mon 05:21:33 PM 42.2783 -92.0394 311° West 378 435 32,000  Level FlightAware ADS-B (LPVM)
Mon 05:22:11 PM 42.3057 -92.0818 311° West 376 433 32,000  Level FlightAware ADS-B (LPVM)
Mon 05:22:49 PM 42.3654 -92.1747 311° West 374 430 32,000  Level FlightAware ADS-B (LPVM)
Mon 05:23:45 PM 42.4292 -92.2742 311° West 372 428 32,000  Level FlightAware ADS-B (LPVM)
Mon 05:24:21 PM 42.4685 -92.3360 311° West 370 426 32,000  Level FlightAware ADS-B (LPVM)
Mon 05:25:10 PM 42.5234 -92.4221 311° West 368 423 32,000  Level FlightAware ADS-B (LPVM)
Mon 05:25:46 PM 42.5628 -92.4844 311° West 365 420 32,000  Level FlightAware ADS-B (LPVM)
Mon 05:26:21 PM 42.5971 -92.5385 311° West 365 420 32,000  Level FlightAware ADS-B (LPVM)
Mon 05:26:59 PM 42.6427 -92.6106 311° West 365 420 32,000  Level FlightAware ADS-B (LPVM)
Mon 05:27:52 PM 42.7000 -92.7020 310° West 362 417 32,000  Level FlightAware ADS-B
Mon 05:28:20 PM 42.7220 -92.7570 299° West 355 409 32,000  Level FlightAware ADS-B
Mon 05:28:48 PM 42.7424 -92.8154 295° West 355 409 32,000  Level FlightAware ADS-B (LPVM)
Mon 05:29:24 PM 42.7669 -92.8855 295° West 353 406 32,000  Level FlightAware ADS-B (LPVM)
Mon 05:30:10 PM 42.7990 -92.9750 296° West 352 405 32,000  Level FlightAware ADS-B
Mon 05:30:45 PM 42.8247 -93.0493 295° West 352 405 32,000  Level FlightAware ADS-B (LPVM)
Mon 05:31:45 PM 42.8650 -93.1650 295° West 352 405 32,000  Level FlightAware ADS-B
Mon 05:32:19 PM 42.8907 -93.2377 296° West 352 405 32,000  Level FlightAware ADS-B (LPVM)
Mon 05:33:17 PM 42.9290 -93.3480 295° West 350 403 32,000  Level FlightAware ADS-B
Mon 05:34:04 PM 42.9630 -93.4460 295° West 348 400 32,000  Level FlightAware ADS-B
Mon 05:34:52 PM 42.9960 -93.5400 296° West 346 398 32,000  Level FlightAware ADS-B
Mon 05:34:53 PM 42.9613 -93.4401 115° Southeast 344 396 32,000  Level FlightAware ADS-B (LPVM)
Mon 05:35:58 PM 43.0400 -93.6680 295° West 344 396 32,000  Level FlightAware ADS-B
Mon 05:36:45 PM 43.0720 -93.7620 295° West 345 397 32,000  Level FlightAware ADS-B
Mon 05:37:25 PM 43.0990 -93.8390 296° West 344 396 32,000  Level FlightAware ADS-B
Mon 05:38:16 PM 43.1340 -93.9420 295° West 344 396 32,000  Level FlightAware ADS-B
Mon 05:39:14 PM 43.1720 -94.0530 295° West 342 394 32,000  Level FlightAware ADS-B
Mon 05:39:49 PM 43.1960 -94.1240 295° West 342 394 32,000  Level FlightAware ADS-B
Mon 05:40:50 PM 43.2350 -94.2420 294° West 343 395 32,000  Level FlightAware ADS-B
Mon 05:41:22 PM 43.2570 -94.3050 296° West 344 396 32,000 439 Level FlightAware ADS-B
Mon 05:42:12 PM 43.2910 -94.4070 295° West 346 398 32,600 947 Climbing FlightAware ADS-B
Mon 05:42:38 PM 43.3080 -94.4600 294° West 345 397 33,200 931 Climbing FlightAware ADS-B
Mon 05:43:10 PM 43.3280 -94.5180 295° West 351 404 33,500 533 Climbing FlightAware ADS-B
Mon 05:44:08 PM 43.3690 -94.6400 295° West 360 414 34,000 283 Climbing FlightAware ADS-B
Mon 05:44:56 PM 43.4030 -94.7430 294° West 359 413 34,000  Level FlightAware ADS-B
Mon 05:45:42 PM 43.4347 -94.8395 294° West 355 409 34,000  Level FlightAware ADS-B (LPVM)
Mon 05:46:32 PM 43.4682 -94.9416 294° West 356 410 34,000  Level FlightAware ADS-B (LPVM)
Mon 05:47:20 PM 43.5010 -95.0410 294° West 356 410 34,000  Level FlightAware ADS-B
Mon 05:48:05 PM 43.5311 -95.1337 294° West 357 411 34,000  Level FlightAware ADS-B (LPVM)
Mon 05:48:43 PM 43.5564 -95.2117 294° West 357 411 34,000  Level FlightAware ADS-B (LPVM)
Mon 05:49:40 PM 43.5953 -95.3316 294° West 357 411 34,000  Level FlightAware ADS-B (LPVM)
Mon 05:50:13 PM 43.6171 -95.3994 294° West 356 410 34,000  Level FlightAware ADS-B (LPVM)
Mon 05:50:49 PM 43.6411 -95.4737 294° West 357 411 34,000  Level FlightAware ADS-B (LPVM)
Mon 05:51:19 PM 43.6613 -95.5362 294° West 357 411 34,000  Level FlightAware ADS-B (LPVM)
Mon 05:52:07 PM 43.6930 -95.6350 294° West 356 410 34,000  Level FlightAware ADS-B
Mon 05:52:37 PM 43.7130 -95.6980 294° West 356 410 34,000  Level FlightAware ADS-B
Mon 05:53:25 PM 43.7450 -95.7980 294° West 357 411 34,000  Level FlightAware ADS-B
Mon 05:53:54 PM 43.7643 -95.8590 294° West 358 412 34,000  Level FlightAware ADS-B (LPVM)
Mon 05:54:52 PM 43.8027 -95.9804 294° West 360 414 34,000  Level FlightAware ADS-B (LPVM)
Mon 05:55:32 PM 43.8292 -96.0645 294° West 361 415 34,000  Level FlightAware ADS-B (LPVM)
Mon 05:56:17 PM 43.8580 -96.1550 294° West 360 414 34,000  Level FlightAware ADS-B
Mon 05:57:04 PM 43.8900 -96.2580 293° West 361 415 34,000  Level FlightAware ADS-B
Mon 05:57:40 PM 43.9140 -96.3350 293° West 361 415 34,000  Level FlightAware ADS-B
Mon 05:58:20 PM 43.9400 -96.4200 293° West 360 414 34,000  Level FlightAware ADS-B
Mon 05:58:57 PM 43.9650 -96.4990 294° West 359 413 34,000  Level FlightAware ADS-B
Mon 05:59:30 PM 43.9850 -96.5650 293° West 358 412 34,000  Level FlightAware ADS-B
Mon 06:00:30 PM 44.0250 -96.6950 293° West 358 412 34,000  Level FlightAware ADS-B
Mon 06:01:22 PM 44.0580 -96.8040 293° West 359 413 34,000  Level FlightAware ADS-B
Mon 06:02:10 PM 44.0890 -96.9060 293° West 361 415 34,000  Level FlightAware ADS-B
Mon 06:02:25 PM 44.1000 -96.9390 295° West 361 415 34,000  Level FlightAware ADS-B
Mon 06:03:22 PM 44.1340 -97.0540 292° West 363 418 34,000  Level FlightAware ADS-B
Mon 06:03:48 PM 44.1530 -97.1170 293° West 364 419 34,000  Level FlightAware ADS-B
Mon 06:04:54 PM 44.1950 -97.2560 293° West 365 420 34,000  Level FlightAware ADS-B
Mon 06:05:33 PM 44.2220 -97.3460 293° West 367 422 34,000  Level FlightAware ADS-B
Mon 06:06:30 PM 44.2590 -97.4680 293° West 368 423 34,000  Level FlightAware ADS-B
Mon 06:07:26 PM 44.2960 -97.5930 293° West 369 425 34,000  Level FlightAware ADS-B
Mon 06:08:22 PM 44.3310 -97.7120 292° West 369 425 34,000  Level FlightAware ADS-B
Mon 06:09:07 PM 44.3610 -97.8140 292° West 369 425 34,000  Level FlightAware ADS-B
Mon 06:09:45 PM 44.3860 -97.8990 292° West 370 426 34,000  Level FlightAware ADS-B
Mon 06:10:35 PM 44.4080 -98.0100 286° West 371 427 34,000  Level FlightAware ADS-B
Mon 06:11:01 PM 44.4200 -98.0700 286° West 371 427 34,000  Level FlightAware ADS-B
Mon 06:12:14 PM 44.4550 -98.2430 286° West 373 429 34,000  Level FlightAware ADS-B
Mon 06:13:10 PM 44.4800 -98.3710 285° West 373 429 34,000  Level FlightAware ADS-B
Mon 06:13:58 PM 44.5020 -98.4840 285° West 373 429 34,000  Level FlightAware ADS-B
Mon 06:14:31 PM 44.5170 -98.5600 285° West 372 428 34,000  Level FlightAware ADS-B
Mon 06:15:27 PM 44.5430 -98.6910 286° West 373 429 34,000  Level FlightAware ADS-B
Mon 06:16:24 PM 44.5680 -98.8230 285° West 374 430 34,000  Level FlightAware ADS-B
Mon 06:17:24 PM 44.5960 -98.9650 286° West 378 435 34,000 59 Level FlightAware ADS-B
Mon 06:18:05 PM 44.6140 -99.0610 285° West 377 434 34,100  Climbing FlightAware ADS-B
Mon 06:19:00 PM 44.6390 -99.1910 285° West 379 436 34,000 -79 Descending FlightAware ADS-B
Mon 06:19:21 PM 44.6490 -99.2430 285° West 379 436 34,000  Level FlightAware ADS-B
Mon 06:19:52 PM 44.6620 -99.3150 284° West 379 436 34,000  Level FlightAware ADS-B
Mon 06:20:46 PM 44.6860 -99.4440 285° West 379 436 34,000  Level FlightAware ADS-B
Mon 06:21:29 PM 44.7050 -99.5460 285° West 379 436 34,000  Level FlightAware ADS-B
Mon 06:22:18 PM 44.7240 -99.6510 284° West 380 437 34,000  Level FlightAware ADS-B
Mon 06:22:34 PM 44.7280 -99.6690 287° West 382 440 34,000  Level FlightAware ADS-B
Mon 06:23:25 PM 44.7570 -99.8250 285° West 382 440 34,000  Level FlightAware ADS-B
Mon 06:23:56 PM 44.7700 -99.8990 284° West 383 441 34,000  Level FlightAware ADS-B
Mon 06:24:24 PM 44.7820 -99.9650 284° West 383 441 34,000  Level FlightAware ADS-B
Mon 06:24:57 PM 44.7970 -100.0450 285° West 384 442 34,000  Level FlightAware ADS-B
Mon 06:25:40 PM 44.8120 -100.1330 284° West 384 442 34,000  Level FlightAware ADS-B
Mon 06:26:04 PM 44.8210 -100.1820 285° West 384 442 34,000  Level FlightAware ADS-B
Mon 06:26:28 PM 44.8300 -100.2320 284° West 384 442 34,000  Level FlightAware ADS-B
Mon 06:27:27 PM 44.8510 -100.3540 284° West 384 442 34,000  Level FlightAware ADS-B
Mon 06:28:05 PM 44.8650 -100.4320 284° West 384 442 34,000  Level FlightAware ADS-B
Mon 06:28:53 PM 44.8830 -100.5320 284° West 384 442 34,000  Level FlightAware ADS-B
Mon 06:29:42 PM 44.9010 -100.6330 284° West 384 442 34,000  Level FlightAware ADS-B
Mon 06:30:30 PM 44.9180 -100.7320 284° West 384 442 34,000  Level FlightAware ADS-B
Mon 06:31:18 PM 44.9360 -100.8320 284° West 384 442 34,000  Level FlightAware ADS-B
Mon 06:31:42 PM 44.9440 -100.8810 283° West 384 442 34,000  Level FlightAware ADS-B
Mon 06:32:42 PM 44.9660 -101.0060 284° West 384 442 34,000  Level FlightAware ADS-B
Mon 06:33:30 PM 44.9840 -101.1050 284° West 384 442 34,000  Level FlightAware ADS-B
Mon 06:33:54 PM 44.9930 -101.1550 284° West 384 442 34,000  Level FlightAware ADS-B
Mon 06:34:43 PM 45.0100 -101.2560 283° West 384 442 34,000  Level FlightAware ADS-B
Mon 06:35:16 PM 45.0528 -101.5169 283° West 385 443 34,000  Level Salt Lake Center
Mon 06:36:17 PM 45.0761 -101.6625 283° West 383 441 34,000  Level Salt Lake Center
Mon 06:37:19 PM 45.1064 -101.8381 284° West 383 441 34,000  Level Salt Lake Center
Mon 06:38:20 PM 45.1303 -101.9850 283° West 384 442 34,000  Level Salt Lake Center
Mon 06:38:50 PM 45.1389 -102.0497 281° West 387 445 34,000  Level Minneapolis Center
Mon 06:39:51 PM 45.1631 -102.1989 283° West 389 448 34,000  Level Minneapolis Center
Mon 06:40:53 PM 45.1914 -102.3789 283° West 390 449 34,000  Level Minneapolis Center
Mon 06:41:55 PM 45.2150 -102.5289 283° West 390 449 34,000  Level Minneapolis Center
Mon 06:42:57 PM 45.2383 -102.6789 283° West 390 449 34,000  Level Minneapolis Center
Mon 06:43:59 PM 45.2614 -102.8286 282° West 389 448 34,000  Level Minneapolis Center
Mon 06:45:00 PM 45.2844 -102.9786 282° West 389 448 34,000  Level Minneapolis Center
Mon 06:46:02 PM 45.3069 -103.1289 282° West 390 449 34,000  Level Minneapolis Center
Mon 06:47:04 PM 45.3297 -103.2797 282° West 391 450 34,000  Level Minneapolis Center
Mon 06:48:06 PM 45.3517 -103.4283 282° West 391 450 34,000  Level Minneapolis Center
Mon 06:49:08 PM 45.3783 -103.6092 282° West 390 449 34,000  Level Minneapolis Center
Mon 06:50:09 PM 45.4006 -103.7603 282° West 393 452 34,000  Level Minneapolis Center
Mon 06:51:11 PM 45.4222 -103.9133 281° West 396 456 34,000  Level Minneapolis Center
Mon 06:52:13 PM 45.4442 -104.0664 282° West 395 455 34,000  Level Minneapolis Center
Mon 06:57:52 PM 45.5660 -104.9590 282° West 401 461 34,000  Level FlightAware ADS-B
Mon 06:58:40 PM 45.5820 -105.0820 281° West 403 464 34,000  Level FlightAware ADS-B
Mon 06:59:20 PM 45.5950 -105.1790 281° West 405 466 34,000  Level FlightAware ADS-B
Mon 07:00:05 PM 45.6100 -105.2980 280° West 406 467 34,000  Level FlightAware ADS-B
Mon 07:00:44 PM 45.6240 -105.4090 280° West 407 468 34,000  Level FlightAware ADS-B
Mon 07:01:09 PM 45.6330 -105.4760 281° West 408 470 34,000  Level FlightAware ADS-B
Mon 07:02:08 PM 45.6530 -105.6330 280° West 410 472 34,000  Level FlightAware ADS-B
Mon 07:02:59 PM 45.6700 -105.7700 280° West 411 473 34,000  Level FlightAware ADS-B
Mon 07:03:46 PM 45.6850 -105.8930 280° West 413 475 34,000  Level FlightAware ADS-B
Mon 07:04:07 PM 45.6930 -105.9520 281° West 413 475 34,000  Level FlightAware ADS-B
Mon 07:05:10 PM 45.7130 -106.1170 280° West 415 478 34,000 -529 Level FlightAware ADS-B
Mon 07:05:49 PM 45.7260 -106.2240 280° West 408 470 33,100 -1,655 Descending FlightAware ADS-B
Mon 07:06:37 PM 45.7400 -106.3470 279° West 399 459 31,600 -1,970 Descending FlightAware ADS-B
Mon 07:06:56 PM 45.7470 -106.4020 280° West 402 463 30,900 -2,300 Descending FlightAware ADS-B
Mon 07:07:37 PM 45.7590 -106.5070 279° West 410 472 29,300 -2,265 Descending FlightAware ADS-B
Mon 07:08:34 PM 45.7780 -106.6640 280° West 436 502 27,200 -2,133 Descending FlightAware ADS-B
Mon 07:09:07 PM 45.7890 -106.7590 279° West 428 493 26,100 -2,000 Descending FlightAware ADS-B
Mon 07:09:40 PM 45.8000 -106.8530 280° West 424 488 25,000 -2,093 Descending FlightAware ADS-B
Mon 07:10:33 PM 45.8160 -106.9980 279° West 431 496 23,100 -2,105 Descending FlightAware ADS-B
Mon 07:11:34 PM 45.8350 -107.1660 279° West 415 478 21,000 -2,053 Descending FlightAware ADS-B
Mon 07:11:49 PM 45.8400 -107.2070 280° West 413 475 20,500 -1,579 Descending FlightAware ADS-B
Mon 07:12:50 PM 45.8580 -107.3690 279° West 404 465 19,000 -1,397 Descending FlightAware ADS-B
Mon 07:13:45 PM 45.8740 -107.5120 279° West 393 452 17,800 -1,472 Descending FlightAware ADS-B
Mon 07:14:36 PM 45.8880 -107.6410 279° West 385 443 16,400 -2,204 Descending FlightAware ADS-B
Mon 07:15:23 PM 45.8830 -107.7600 267° West 387 445 14,200 -3,000 Descending FlightAware ADS-B
Mon 07:16:16 PM 45.8540 -107.8840 251° West 368 423 11,400 -2,321 Descending FlightAware ADS-B
Mon 07:17:09 PM 45.8360 -108.0020 258° West 302 348 10,100 -1,674 Descending FlightAware ADS-B
Mon 07:17:42 PM 45.8260 -108.0630 257° West 283 326 9,000 -1,967 Descending FlightAware ADS-B
Mon 07:18:10 PM 45.8170 -108.1130 256° West 268 308 8,100 -1,962 Descending FlightAware ADS-B
Mon 07:18:34 PM 45.8100 -108.1530 256° West 257 296 7,300 -1,946 Descending FlightAware ADS-B
Mon 07:18:47 PM 45.8070 -108.1710 257° West 253 291 6,900 -615 Descending FlightAware ADS-B
Mon 07:19:13 PM 45.8020 -108.2070 259° West 253 291 6,900 -587 Level FlightAware ADS-B
Mon 07:20:19 PM 45.7856 -108.3131 259° West 244 281 6,000 -750 Descending Salt Lake Center
Mon 07:21:21 PM 45.7731 -108.3856 256° West 194 223 5,300 -683 Descending Salt Lake Center
Mon 07:22:22 PM 45.7825 -108.4461 283° West 151 174 4,600 -732 Descending Salt Lake Center
Mon 07:23:24 PM 45.7964 -108.4958 292° West 138 159 3,800 -774 Descending Salt Lake Center
Mon 07:25:00 PM 45.8000 -108.5333 254° West  Level FlightAware Approximate

Login

Don't have an account? Register now (free) for customized features, flight alerts, and more!